createdAt,value
2019-01-09T00:01:39.965Z,2.07
2019-01-09T00:04:09.052Z,1.57
2019-01-09T00:06:57.154Z,2.03
2019-01-09T00:09:26.157Z,1.63
2019-01-09T00:11:55.188Z,1.80
2019-01-09T00:14:24.233Z,2.17
2019-01-09T00:16:53.244Z,1.83
2019-01-09T00:19:22.271Z,1.80
2019-01-09T00:21:51.264Z,1.90
2019-01-09T00:24:20.279Z,1.70
2019-01-09T00:26:49.114Z,1.93
2019-01-09T00:29:18.208Z,2.20
2019-01-09T00:31:47.214Z,1.53
2019-01-09T00:34:16.213Z,2.00
2019-01-09T00:36:45.123Z,1.40
2019-01-09T00:39:14.140Z,1.80
2019-01-09T00:41:43.132Z,1.63
2019-01-09T00:44:12.228Z,1.70
2019-01-09T00:46:41.224Z,1.83
2019-01-09T00:49:10.242Z,1.80
2019-01-09T00:51:39.232Z,1.40
2019-01-09T00:54:08.251Z,1.87
2019-01-09T00:56:37.275Z,1.80
2019-01-09T00:59:06.314Z,1.70
2019-01-09T01:01:35.280Z,1.70
2019-01-09T01:04:38.208Z,1.93
2019-01-09T01:07:46.951Z,1.90
2019-01-09T01:10:45.508Z,1.40
2019-01-09T01:13:51.244Z,1.90
2019-01-09T01:17:07.251Z,1.70
2019-01-09T01:20:17.111Z,1.73
2019-01-09T01:23:22.727Z,2.00
2019-01-09T01:26:20.624Z,1.80
2019-01-09T01:29:43.771Z,2.23
2019-01-09T01:32:49.540Z,1.63
2019-01-09T01:35:33.724Z,1.90
2019-01-09T01:38:29.873Z,2.23
2019-01-09T01:41:38.868Z,1.87
2019-01-09T01:44:32.660Z,1.60
2019-01-09T01:47:54.668Z,2.30
2019-01-09T01:51:00.348Z,2.00
2019-01-09T01:53:47.078Z,1.80
2019-01-09T01:57:04.181Z,2.20
2019-01-09T01:59:48.014Z,1.87
2019-01-09T02:03:00.232Z,2.30
2019-01-09T02:06:06.785Z,1.57
2019-01-09T02:09:13.504Z,1.80
2019-01-09T02:12:16.146Z,2.10
2019-01-09T02:15:15.471Z,2.17
2019-01-09T02:18:18.940Z,1.90
2019-01-09T02:21:29.264Z,1.80
2019-01-09T02:24:53.677Z,2.70
2019-01-09T02:27:37.788Z,2.20
2019-01-09T02:30:47.645Z,2.40
2019-01-09T02:33:16.786Z,2.03
2019-01-09T02:35:46.061Z,2.10
2019-01-09T02:38:15.084Z,2.27
2019-01-09T02:40:43.972Z,2.40
2019-01-09T02:43:20.836Z,1.90
2019-01-09T02:45:49.870Z,1.90
2019-01-09T02:48:18.798Z,2.07
2019-01-09T02:50:48.018Z,1.77
2019-01-09T02:53:16.955Z,1.97
2019-01-09T02:55:45.964Z,2.30
2019-01-09T02:58:14.956Z,2.07
2019-01-09T03:00:43.908Z,2.00
2019-01-09T03:03:12.961Z,2.03
2019-01-09T03:05:41.984Z,1.63
2019-01-09T03:08:11.025Z,1.83
2019-01-09T03:10:40.017Z,2.10
2019-01-09T03:13:09.036Z,2.03
2019-01-09T03:15:38.032Z,1.80
2019-01-09T03:18:07.064Z,1.87
2019-01-09T03:20:36.101Z,1.83
2019-01-09T03:23:05.094Z,1.70
2019-01-09T03:25:34.120Z,2.37
2019-01-09T03:28:03.126Z,1.60
2019-01-09T03:30:32.122Z,2.10
2019-01-09T03:33:01.150Z,2.07
2019-01-09T03:35:30.144Z,1.93
2019-01-09T03:37:59.175Z,2.20
2019-01-09T03:40:28.096Z,1.87
2019-01-09T03:42:57.096Z,2.07
2019-01-09T03:45:26.089Z,1.60
2019-01-09T03:47:55.039Z,2.00
2019-01-09T03:50:23.959Z,2.37
2019-01-09T03:52:52.973Z,1.57
2019-01-09T03:55:22.038Z,2.37
2019-01-09T03:57:51.035Z,2.10
2019-01-09T04:00:20.048Z,2.03
2019-01-09T04:02:49.086Z,2.33
2019-01-09T04:05:18.012Z,2.40
2019-01-09T04:07:47.020Z,2.23
2019-01-09T04:10:16.016Z,2.50
2019-01-09T04:12:45.021Z,2.20
2019-01-09T04:15:14.136Z,2.70
2019-01-09T04:17:43.097Z,2.10
2019-01-09T04:20:12.085Z,2.43
2019-01-09T04:22:41.003Z,2.40
2019-01-09T04:25:09.928Z,2.50
2019-01-09T04:27:38.864Z,2.13
2019-01-09T04:30:08.184Z,1.90
2019-01-09T04:32:37.052Z,1.40
2019-01-09T04:35:06.296Z,1.43
2019-01-09T04:37:35.180Z,0.90
2019-01-09T04:40:04.776Z,1.00
2019-01-09T04:42:33.758Z,0.80
2019-01-09T04:45:02.838Z,1.13
2019-01-09T04:47:31.692Z,0.70
2019-01-09T04:50:00.629Z,0.70
2019-01-09T04:52:29.636Z,0.90
2019-01-09T04:54:58.585Z,0.87
2019-01-09T04:57:27.595Z,1.00
2019-01-09T04:59:56.584Z,0.70
2019-01-09T05:02:25.497Z,0.60
2019-01-09T05:04:54.405Z,0.90
2019-01-09T05:07:23.450Z,0.60
2019-01-09T05:09:53.723Z,0.70
2019-01-09T05:12:23.007Z,0.77
2019-01-09T05:14:52.001Z,0.57
2019-01-09T05:17:21.036Z,0.90
2019-01-09T05:19:49.964Z,0.60
2019-01-09T05:22:20.008Z,0.90
2019-01-09T05:24:49.001Z,0.60
2019-01-09T05:27:17.996Z,0.90
2019-01-09T05:29:46.840Z,0.57
2019-01-09T05:32:15.867Z,1.00
2019-01-09T05:34:44.892Z,1.00
2019-01-09T05:37:13.819Z,1.30
2019-01-09T05:39:42.705Z,1.37
2019-01-09T05:42:11.740Z,1.30
2019-01-09T05:44:40.769Z,1.50
2019-01-09T05:47:09.797Z,1.50
2019-01-09T05:49:38.834Z,1.60
2019-01-09T05:52:07.829Z,1.90
2019-01-09T05:54:36.823Z,2.43
2019-01-09T05:57:05.856Z,2.20
2019-01-09T05:59:35.144Z,2.40
2019-01-09T06:02:04.183Z,2.47
2019-01-09T06:04:33.181Z,2.97
2019-01-09T06:07:02.124Z,2.77
2019-01-09T06:09:31.075Z,2.50
2019-01-09T06:12:00.030Z,3.03
2019-01-09T06:14:29.080Z,3.00
2019-01-09T06:16:58.055Z,2.50
2019-01-09T06:19:27.057Z,2.80
2019-01-09T06:21:56.297Z,3.00
2019-01-09T06:24:25.232Z,2.47
2019-01-09T06:26:54.234Z,2.67
2019-01-09T06:29:23.260Z,2.87
2019-01-09T06:31:52.248Z,2.77
2019-01-09T06:34:21.211Z,2.00
2019-01-09T06:36:50.137Z,2.00
2019-01-09T06:39:19.072Z,1.70
2019-01-09T06:41:48.084Z,1.83
2019-01-09T06:44:17.079Z,1.80
2019-01-09T06:46:46.088Z,1.40
2019-01-09T06:49:15.132Z,1.60
2019-01-09T06:51:44.148Z,1.70
2019-01-09T06:54:13.124Z,2.27
2019-01-09T06:56:42.099Z,2.00
2019-01-09T06:59:11.161Z,2.13
2019-01-09T07:01:40.184Z,2.10
2019-01-09T07:04:09.155Z,1.83
2019-01-09T07:06:38.040Z,2.00
2019-01-09T07:09:07.140Z,1.97
2019-01-09T07:11:36.199Z,1.60
2019-01-09T07:14:05.208Z,1.07
2019-01-09T07:16:34.216Z,1.03
2019-01-09T07:19:03.180Z,1.50
2019-01-09T07:21:32.186Z,1.20
2019-01-09T07:24:01.157Z,1.10
2019-01-09T07:26:30.158Z,1.20
2019-01-09T07:28:59.164Z,1.20
2019-01-09T07:31:28.219Z,1.47
2019-01-09T07:33:59.151Z,1.70
2019-01-09T07:36:27.797Z,1.30
2019-01-09T07:38:56.816Z,1.60
2019-01-09T07:41:25.849Z,1.60
2019-01-09T07:43:54.891Z,1.67
2019-01-09T07:46:23.952Z,2.07
2019-01-09T07:48:57.836Z,1.77
2019-01-09T07:51:26.767Z,2.40
2019-01-09T07:53:57.440Z,1.70
2019-01-09T07:56:45.660Z,2.07
2019-01-09T07:59:14.607Z,2.37
2019-01-09T08:01:43.530Z,2.00
2019-01-09T08:04:12.583Z,2.47
2019-01-09T08:06:41.580Z,1.93
2019-01-09T08:09:10.602Z,2.50
2019-01-09T08:11:39.616Z,2.30
2019-01-09T08:14:08.641Z,1.80
2019-01-09T08:16:37.661Z,2.50
2019-01-09T08:19:06.634Z,2.00
2019-01-09T08:21:35.668Z,1.07
2019-01-09T08:24:04.689Z,1.20
2019-01-09T08:26:33.680Z,1.33
2019-01-09T08:29:02.708Z,1.00
2019-01-09T08:31:33.559Z,1.07
2019-01-09T08:34:02.469Z,1.57
2019-01-09T08:36:31.393Z,1.23
2019-01-09T08:39:00.411Z,1.30
2019-01-09T08:41:30.012Z,1.20
2019-01-09T08:43:58.959Z,1.20
2019-01-09T08:46:29.501Z,1.23
2019-01-09T08:48:58.500Z,1.43
2019-01-09T08:51:27.440Z,4.13
2019-01-09T08:53:56.546Z,1.30
2019-01-09T08:56:25.598Z,1.20
2019-01-09T08:58:54.621Z,1.10
2019-01-09T09:01:23.527Z,1.90
2019-01-09T09:03:53.532Z,1.20
2019-01-09T09:06:22.775Z,1.43
2019-01-09T09:08:54.150Z,1.37
2019-01-09T09:11:23.131Z,1.40
2019-01-09T09:13:53.690Z,2.77
2019-01-09T09:16:22.780Z,1.70
2019-01-09T09:18:52.466Z,1.37
2019-01-09T09:21:21.480Z,1.57
2019-01-09T09:23:50.780Z,1.43
2019-01-09T09:26:19.773Z,2.10
2019-01-09T09:28:48.700Z,2.13
2019-01-09T09:31:17.732Z,2.20
2019-01-09T09:33:46.884Z,1.90
2019-01-09T09:36:15.870Z,2.53
2019-01-09T09:38:45.116Z,2.30
2019-01-09T09:41:14.159Z,3.00
2019-01-09T09:43:43.149Z,2.60
2019-01-09T09:46:12.177Z,2.13
2019-01-09T09:48:41.198Z,2.53
2019-01-09T09:51:10.218Z,3.43
2019-01-09T09:53:39.223Z,2.70
2019-01-09T09:56:08.699Z,3.40
2019-01-09T09:58:38.200Z,2.80
2019-01-09T10:01:07.376Z,2.77
2019-01-09T10:03:36.423Z,3.07
2019-01-09T10:06:05.474Z,2.80
2019-01-09T10:08:34.417Z,3.80
2019-01-09T10:11:03.369Z,2.73
2019-01-09T10:13:32.404Z,2.67
2019-01-09T10:16:01.414Z,2.37
2019-01-09T10:18:30.451Z,3.17
2019-01-09T10:20:59.808Z,3.10
2019-01-09T10:23:28.765Z,2.70
2019-01-09T10:25:57.640Z,2.33
2019-01-09T10:28:26.655Z,3.60
2019-01-09T10:30:55.680Z,3.47
2019-01-09T10:33:24.714Z,2.87
2019-01-09T10:35:53.729Z,2.53
2019-01-09T10:38:22.768Z,2.53
2019-01-09T10:40:51.809Z,2.77
2019-01-09T10:43:20.851Z,3.13
2019-01-09T10:45:49.875Z,3.20
2019-01-09T10:48:19.162Z,3.83
2019-01-09T10:50:48.194Z,3.30
2019-01-09T10:53:17.212Z,4.30
2019-01-09T10:55:46.250Z,3.40
2019-01-09T10:58:15.265Z,2.90
2019-01-09T11:00:44.316Z,3.03
2019-01-09T11:03:13.362Z,2.70
2019-01-09T11:05:42.338Z,3.03
2019-01-09T11:08:11.424Z,3.47
2019-01-09T11:10:40.459Z,3.40
2019-01-09T11:13:09.481Z,3.70
2019-01-09T11:15:38.509Z,4.10
2019-01-09T11:18:07.704Z,3.40
2019-01-09T11:20:36.738Z,3.50
2019-01-09T11:23:05.761Z,4.07
2019-01-09T11:25:34.776Z,5.03
2019-01-09T11:28:03.738Z,4.20
2019-01-09T11:30:32.764Z,4.17
2019-01-09T11:33:01.733Z,3.37
2019-01-09T11:35:30.757Z,3.90
2019-01-09T11:37:59.757Z,3.73
2019-01-09T11:40:28.761Z,4.20
2019-01-09T11:42:57.976Z,3.47
2019-01-09T11:45:26.967Z,5.60
2019-01-09T11:47:55.993Z,4.70
2019-01-09T11:50:25.031Z,4.10
2019-01-09T11:52:54.010Z,4.40
2019-01-09T11:55:23.043Z,3.83
2019-01-09T11:57:51.988Z,4.13
2019-01-09T12:00:25.964Z,3.40
2019-01-09T12:02:54.992Z,5.50
2019-01-09T12:05:24.008Z,4.23
2019-01-09T12:07:52.997Z,3.93
2019-01-09T12:10:29.870Z,4.03
2019-01-09T12:12:53.894Z,3.57
2019-01-09T12:15:22.913Z,4.50
2019-01-09T12:17:52.136Z,4.57
2019-01-09T12:20:21.159Z,3.70
2019-01-09T12:22:50.564Z,3.87
2019-01-09T12:25:19.528Z,3.60
2019-01-09T12:27:48.548Z,4.10
2019-01-09T12:30:23.318Z,3.90
2019-01-09T12:32:52.356Z,3.80
2019-01-09T12:35:21.746Z,3.60
2019-01-09T12:37:50.885Z,3.80
2019-01-09T12:40:20.010Z,3.33
2019-01-09T12:42:49.008Z,4.00
2019-01-09T12:45:18.318Z,5.20
2019-01-09T12:47:47.322Z,3.87
2019-01-09T12:50:27.068Z,4.20
2019-01-09T12:52:55.992Z,2.87
2019-01-09T12:55:25.010Z,3.53
2019-01-09T12:57:54.013Z,2.53
2019-01-09T13:00:25.461Z,2.70
2019-01-09T13:02:54.748Z,2.77
2019-01-09T13:05:23.935Z,3.20
2019-01-09T13:07:52.992Z,2.77
2019-01-09T13:10:22.051Z,2.40
2019-01-09T13:12:52.754Z,2.83
2019-01-09T13:15:21.960Z,3.23
2019-01-09T13:17:50.977Z,2.70
2019-01-09T13:20:21.283Z,3.50
2019-01-09T13:22:50.263Z,3.00
2019-01-09T13:25:19.367Z,3.10
2019-01-09T13:27:48.384Z,3.40
2019-01-09T13:30:19.412Z,3.10
2019-01-09T13:32:48.457Z,2.70
2019-01-09T13:35:17.456Z,2.60
2019-01-09T13:37:46.469Z,3.60
2019-01-09T13:40:17.317Z,2.40
2019-01-09T13:42:46.693Z,2.50
2019-01-09T13:45:20.831Z,3.63
2019-01-09T13:47:50.461Z,2.83
2019-01-09T13:50:20.237Z,3.03
2019-01-09T13:52:50.782Z,2.73
2019-01-09T13:55:19.848Z,2.93
2019-01-09T13:57:49.213Z,4.80
2019-01-09T14:00:20.060Z,3.50
2019-01-09T14:02:49.368Z,2.30
2019-01-09T14:05:18.599Z,4.03
2019-01-09T14:07:47.921Z,3.20
2019-01-09T14:10:22.372Z,3.20
2019-01-09T14:12:51.384Z,2.80
2019-01-09T14:15:21.091Z,3.87
2019-01-09T14:17:50.271Z,3.80
2019-01-09T14:20:19.358Z,3.43
2019-01-09T14:22:48.566Z,4.10
2019-01-09T14:25:17.609Z,3.80
2019-01-09T14:27:46.935Z,4.43
2019-01-09T14:30:35.060Z,3.57
2019-01-09T14:33:04.116Z,3.40
2019-01-09T14:35:33.137Z,4.30
2019-01-09T14:38:02.169Z,4.97
2019-01-09T14:40:31.186Z,3.90
2019-01-09T14:43:00.289Z,3.00
2019-01-09T14:45:29.293Z,3.57
2019-01-09T14:47:58.536Z,3.77
2019-01-09T14:50:27.553Z,3.60
2019-01-09T14:52:56.487Z,3.00
2019-01-09T14:55:25.511Z,2.80
2019-01-09T14:57:54.540Z,3.17
2019-01-09T15:00:25.500Z,4.30
2019-01-09T15:02:54.846Z,4.63
2019-01-09T15:05:23.856Z,4.20
2019-01-09T15:07:52.882Z,3.50
2019-01-09T15:10:26.819Z,3.13
2019-01-09T15:12:56.180Z,3.47
2019-01-09T15:15:25.520Z,3.77
2019-01-09T15:17:54.531Z,3.80
2019-01-09T15:20:23.621Z,3.20
2019-01-09T15:22:52.645Z,3.73
2019-01-09T15:25:21.696Z,3.50
2019-01-09T15:27:50.701Z,3.43
2019-01-09T15:30:22.547Z,2.73
2019-01-09T15:32:51.581Z,3.60
2019-01-09T15:35:20.710Z,3.70
2019-01-09T15:37:49.821Z,3.30
2019-01-09T15:40:24.168Z,4.23
2019-01-09T15:42:53.281Z,3.17
2019-01-09T15:45:22.318Z,3.77
2019-01-09T15:47:51.570Z,4.00
2019-01-09T15:50:21.218Z,3.93
2019-01-09T15:52:50.260Z,4.13
2019-01-09T15:55:19.278Z,5.50
2019-01-09T15:57:48.625Z,4.20
2019-01-09T16:00:25.962Z,4.17
2019-01-09T16:02:54.995Z,4.20
2019-01-09T16:05:23.932Z,5.57
2019-01-09T16:07:52.974Z,4.30
2019-01-09T16:10:22.056Z,4.20
2019-01-09T16:12:51.055Z,5.90
2019-01-09T16:15:20.412Z,4.57
2019-01-09T16:17:49.656Z,4.20
2019-01-09T16:20:19.173Z,4.03
2019-01-09T16:22:48.305Z,4.40
2019-01-09T16:25:17.500Z,4.20
2019-01-09T16:27:46.544Z,4.93
2019-01-09T16:32:55.819Z,4.60
2019-01-09T16:35:24.864Z,4.90
2019-01-09T16:37:53.943Z,4.33
2019-01-09T16:40:23.761Z,4.97
2019-01-09T16:42:52.964Z,4.67
2019-01-09T16:45:21.992Z,4.73
2019-01-09T16:47:51.002Z,4.90
2019-01-09T16:50:20.454Z,4.90
2019-01-09T16:52:49.524Z,6.33
2019-01-09T16:55:18.540Z,5.00
2019-01-09T16:57:47.661Z,5.10
2019-01-09T17:00:23.152Z,6.33
2019-01-09T17:02:52.199Z,5.77
2019-01-09T17:05:21.422Z,5.63
2019-01-09T17:07:51.124Z,6.77
2019-01-09T17:10:20.146Z,6.90
2019-01-09T17:12:49.114Z,5.50
2019-01-09T17:15:18.299Z,6.03
2019-01-09T17:17:47.625Z,6.23
2019-01-09T17:20:18.625Z,6.20
2019-01-09T17:22:47.763Z,6.60
2019-01-09T17:25:16.757Z,6.07
2019-01-09T17:27:45.773Z,6.47
2019-01-09T17:30:23.089Z,7.27
2019-01-09T17:32:52.284Z,7.00
2019-01-09T17:35:21.605Z,7.50
2019-01-09T17:37:50.622Z,7.30
2019-01-09T17:40:20.088Z,6.93
2019-01-09T17:42:49.688Z,7.77
2019-01-09T17:45:18.828Z,6.60
2019-01-09T17:47:47.843Z,7.73
2019-01-09T17:50:28.725Z,6.87
2019-01-09T17:52:58.232Z,7.63
2019-01-09T17:55:27.267Z,6.73
2019-01-09T17:57:56.286Z,6.70
2019-01-09T18:00:27.748Z,7.40
2019-01-09T18:02:56.704Z,6.93
2019-01-09T18:05:25.715Z,7.13
2019-01-09T18:07:54.759Z,7.87
2019-01-09T18:10:23.913Z,7.33
2019-01-09T18:12:52.920Z,7.47
2019-01-09T18:15:23.420Z,7.23
2019-01-09T18:17:52.695Z,8.50
2019-01-09T18:20:22.284Z,7.50
2019-01-09T18:22:51.540Z,7.80
2019-01-09T18:25:22.506Z,7.43
2019-01-09T18:27:51.443Z,7.70
2019-01-09T18:30:23.982Z,6.50
2019-01-09T18:33:05.404Z,8.10
2019-01-09T18:36:24.001Z,8.13
2019-01-09T18:39:10.217Z,7.30
2019-01-09T18:42:08.192Z,8.50
2019-01-09T18:44:52.438Z,6.90
2019-01-09T18:48:03.769Z,9.33
2019-01-09T18:51:09.826Z,8.73
2019-01-09T18:53:43.127Z,7.87
2019-01-09T18:56:13.912Z,7.10
2019-01-09T18:58:42.936Z,7.03
2019-01-09T19:01:12.168Z,8.17
2019-01-09T19:03:41.680Z,8.63
2019-01-09T19:06:11.157Z,7.83
2019-01-09T19:08:40.380Z,7.90
2019-01-09T19:11:09.749Z,7.03
2019-01-09T19:13:38.752Z,7.30
2019-01-09T19:16:08.576Z,6.63
2019-01-09T19:18:38.792Z,6.70
2019-01-09T19:21:08.110Z,7.23
2019-01-09T19:23:37.104Z,7.10
2019-01-09T19:26:06.120Z,7.73
2019-01-09T19:28:35.229Z,7.40
2019-01-09T19:31:04.729Z,7.43
2019-01-09T19:33:33.680Z,6.73
2019-01-09T19:36:02.772Z,6.93
2019-01-09T19:38:31.796Z,7.67
2019-01-09T19:41:00.818Z,6.73
2019-01-09T19:43:29.768Z,6.47
2019-01-09T19:45:58.833Z,6.90
2019-01-09T19:48:27.826Z,7.40
2019-01-09T19:50:56.849Z,7.23
2019-01-09T19:53:25.843Z,7.10
2019-01-09T19:55:54.889Z,7.30
2019-01-09T19:58:23.900Z,6.50
2019-01-09T20:00:53.387Z,6.97
2019-01-09T20:03:22.500Z,6.00
2019-01-09T20:05:51.453Z,6.10
2019-01-09T20:08:20.595Z,7.10
2019-01-09T20:10:49.622Z,6.60
2019-01-09T20:13:18.697Z,6.33
2019-01-09T20:15:48.134Z,6.43
2019-01-09T20:18:17.095Z,6.00
2019-01-09T20:20:46.152Z,5.40
2019-01-09T20:23:15.182Z,5.90
2019-01-09T20:25:44.193Z,5.57
2019-01-09T20:28:13.217Z,5.80
2019-01-09T20:30:42.257Z,5.73
2019-01-09T20:33:11.557Z,5.03
2019-01-09T20:35:40.593Z,5.47
2019-01-09T20:38:09.666Z,5.50
2019-01-09T20:40:38.872Z,5.90
2019-01-09T20:43:08.262Z,5.87
2019-01-09T20:45:37.473Z,6.60
2019-01-09T20:48:06.463Z,6.70
2019-01-09T20:50:35.562Z,7.27
2019-01-09T20:53:04.982Z,6.70
2019-01-09T20:55:34.021Z,6.80
2019-01-09T20:58:03.355Z,6.50
2019-01-09T21:00:32.393Z,6.77
2019-01-09T21:03:07.371Z,7.10
2019-01-09T21:05:39.370Z,5.83
2019-01-09T21:08:08.711Z,5.07
2019-01-09T21:10:37.754Z,5.93
2019-01-09T21:13:06.804Z,6.27
2019-01-09T21:15:36.372Z,6.40
2019-01-09T21:18:05.495Z,6.73
2019-01-09T21:20:34.663Z,7.50
2019-01-09T21:23:04.361Z,6.17
2019-01-09T21:25:33.328Z,5.40
2019-01-09T21:28:02.358Z,5.30
2019-01-09T21:30:31.358Z,5.07
2019-01-09T21:33:00.384Z,5.20
2019-01-09T21:35:29.328Z,6.07
2019-01-09T21:37:58.336Z,5.27
2019-01-09T21:40:28.896Z,4.80
2019-01-09T21:42:57.933Z,5.97
2019-01-09T21:45:26.919Z,5.47
2019-01-09T21:47:56.841Z,5.97
2019-01-09T21:50:26.794Z,5.30
2019-01-09T21:52:56.140Z,6.13
2019-01-09T21:55:25.148Z,5.33
2019-01-09T21:57:54.047Z,5.00
2019-01-09T22:00:27.013Z,4.53
2019-01-09T22:02:56.533Z,4.63
2019-01-09T22:05:26.708Z,4.50
2019-01-09T22:07:55.739Z,5.07
2019-01-09T22:10:27.710Z,5.47
2019-01-09T22:12:56.960Z,6.30
2019-01-09T22:15:26.354Z,5.30
2019-01-09T22:17:55.539Z,5.80
2019-01-09T22:20:24.534Z,5.20
2019-01-09T22:22:53.534Z,4.47
2019-01-09T22:25:22.924Z,5.03
2019-01-09T22:27:51.968Z,4.70
2019-01-09T22:30:23.840Z,4.63
2019-01-09T22:32:52.844Z,4.93
2019-01-09T22:35:22.185Z,4.70
2019-01-09T22:37:51.234Z,4.40
2019-01-09T22:40:21.014Z,5.00
2019-01-09T22:42:50.676Z,5.03
2019-01-09T22:45:19.996Z,4.57
2019-01-09T22:47:49.039Z,4.67
2019-01-09T22:50:20.149Z,4.50
2019-01-09T22:52:49.483Z,4.43
2019-01-09T22:55:18.490Z,4.90
2019-01-09T22:57:47.500Z,4.20
2019-01-09T23:00:48.501Z,5.03
2019-01-09T23:03:17.936Z,4.43
2019-01-09T23:05:46.926Z,4.70
2019-01-09T23:08:16.733Z,4.50
2019-01-09T23:10:54.144Z,4.90
2019-01-09T23:13:16.620Z,5.33
2019-01-09T23:15:45.576Z,5.30
2019-01-09T23:18:14.629Z,4.60
2019-01-09T23:20:43.625Z,4.10
2019-01-09T23:23:12.640Z,5.00
2019-01-09T23:25:41.736Z,4.30
2019-01-09T23:28:11.142Z,4.50
2019-01-09T23:30:41.224Z,4.63
2019-01-09T23:33:10.229Z,6.40
2019-01-09T23:35:39.832Z,4.30
2019-01-09T23:38:08.760Z,4.90
2019-01-09T23:40:37.781Z,4.70
2019-01-09T23:43:06.757Z,4.50
2019-01-09T23:45:35.791Z,5.27
2019-01-09T23:48:05.092Z,3.63
2019-01-09T23:50:34.107Z,4.20
2019-01-09T23:53:03.021Z,5.90
2019-01-09T23:55:31.927Z,4.40
2019-01-09T23:58:00.924Z,4.27
